Time;durP1;ratioP1;P1;durP2;ratioP2;P2;SDS_P1;SDS_P2;PMS_P1;PMS_P2;Temp;Humidity;BMP_temperature;BMP_pressure;BME280_temperature;BME280_humidity;BME280_pressure;Samples;Min_cycle;Max_cycle;Signal;HPM_P1;HPM_P2
2023/12/10 00:01:25;;;;;;;6.20;1.60;;;;;;;8.39;100.00;97027.16;5076554;28;20314;-79
2023/12/10 00:03:52;;;;;;;5.30;2.03;;;;;;;8.35;100.00;97043.31;5080202;28;20325;-79
2023/12/10 00:06:20;;;;;;;10.77;2.47;;;;;;;8.36;100.00;97047.63;5080325;28;20252;-79
2023/12/10 00:08:46;;;;;;;10.00;2.30;;;;;;;8.38;100.00;97053.63;5080580;28;20762;-79
2023/12/10 00:11:13;;;;;;;11.17;2.73;;;;;;;8.35;100.00;97046.78;5080201;28;20318;-79
2023/12/10 00:13:39;;;;;;;8.30;1.80;;;;;;;8.33;100.00;97047.88;5080267;28;20238;-79
2023/12/10 00:16:07;;;;;;;9.47;1.67;;;;;;;8.31;100.00;97061.13;5079692;28;20249;-79
2023/12/10 00:18:33;;;;;;;11.17;2.73;;;;;;;8.34;100.00;97062.69;5080786;28;20705;-79
2023/12/10 00:21:00;;;;;;;11.97;2.27;;;;;;;8.39;100.00;97065.81;5080397;28;20283;-79
2023/12/10 00:23:28;;;;;;;12.83;2.60;;;;;;;8.42;100.00;97062.94;5080020;28;20295;-79
2023/12/10 00:25:54;;;;;;;6.83;2.30;;;;;;;8.51;100.00;97075.41;5079841;28;20227;-78
2023/12/10 00:28:21;;;;;;;9.00;2.17;;;;;;;8.50;100.00;97082.44;5080421;28;20289;-79
2023/12/10 00:30:47;;;;;;;7.83;2.03;;;;;;;8.51;100.00;97091.22;5080715;28;20749;-78
2023/12/10 00:33:15;;;;;;;11.57;2.30;;;;;;;8.53;100.00;97102.44;5080811;28;20254;-80
2023/12/10 00:35:42;;;;;;;13.33;2.40;;;;;;;8.50;100.00;97094.81;5079462;28;20209;-78
2023/12/10 00:38:08;;;;;;;15.33;2.30;;;;;;;8.51;100.00;97101.72;5080842;28;20302;-78
2023/12/10 00:40:36;;;;;;;13.87;3.03;;;;;;;8.46;100.00;97086.28;5080465;28;20243;-79
2023/12/10 00:43:03;;;;;;;15.37;2.27;;;;;;;8.47;100.00;97101.13;5080306;28;20319;-78
2023/12/10 00:45:29;;;;;;;12.07;2.50;;;;;;;8.46;100.00;97098.63;5080694;28;20247;-79
2023/12/10 00:47:56;;;;;;;14.83;3.07;;;;;;;8.49;100.00;97095.72;5080598;28;20314;-78
2023/12/10 00:50:22;;;;;;;10.60;2.83;;;;;;;8.48;100.00;97108.06;5080353;28;20653;-78
2023/12/10 00:52:49;;;;;;;12.73;2.90;;;;;;;8.50;100.00;97106.16;5079953;28;20709;-79
2023/12/10 00:55:15;;;;;;;12.87;2.83;;;;;;;8.58;100.00;97108.19;5079871;28;20230;-78
2023/12/10 00:57:43;;;;;;;13.20;3.27;;;;;;;8.64;100.00;97126.16;5080216;28;20243;-79
2023/12/10 01:00:11;;;;;;;17.07;3.70;;;;;;;8.63;100.00;97133.22;5079849;28;20295;-79
2023/12/10 01:02:37;;;;;;;17.87;3.60;;;;;;;8.55;100.00;97126.84;5077355;28;20274;-78
2023/12/10 01:05:05;;;;;;;18.47;3.37;;;;;;;8.52;100.00;97142.91;5075725;28;20319;-79
2023/12/10 01:07:32;;;;;;;13.67;2.80;;;;;;;8.48;100.00;97162.50;5084761;28;20207;-78
2023/12/10 01:09:58;;;;;;;17.87;2.90;;;;;;;8.51;100.00;97167.56;5086025;28;20243;-79
2023/12/10 01:12:25;;;;;;;19.77;2.83;;;;;;;8.49;100.00;97178.22;5085862;28;20224;-79
2023/12/10 01:14:54;;;;;;;14.33;3.30;;;;;;;8.47;100.00;97185.41;5085693;28;20208;-79
2023/12/10 01:17:20;;;;;;;11.10;2.60;;;;;;;8.50;100.00;97192.22;5085640;28;20228;-79
2023/12/10 01:19:47;;;;;;;13.43;2.87;;;;;;;8.53;100.00;97203.38;5084874;28;20647;-79
2023/12/10 01:22:14;;;;;;;12.53;2.90;;;;;;;8.55;100.00;97205.84;5079573;28;20227;-78
2023/12/10 01:24:41;;;;;;;17.80;2.97;;;;;;;8.56;100.00;97208.38;5079860;28;20314;-79
2023/12/10 01:27:07;;;;;;;16.77;3.10;;;;;;;8.59;100.00;97223.13;5080632;28;20205;-79
2023/12/10 01:29:34;;;;;;;17.87;2.97;;;;;;;8.57;100.00;97225.03;5080831;28;20215;-79
2023/12/10 01:32:02;;;;;;;14.57;3.27;;;;;;;8.55;100.00;97240.09;5080849;28;20256;-78
2023/12/10 01:34:28;;;;;;;14.13;3.47;;;;;;;8.54;100.00;97241.06;5080575;28;20295;-79
2023/12/10 01:36:55;;;;;;;16.30;3.77;;;;;;;8.52;100.00;97243.78;5079050;28;20282;-79
2023/12/10 01:39:21;;;;;;;13.47;3.17;;;;;;;8.48;100.00;97257.31;5075581;28;20298;-79
2023/12/10 01:41:48;;;;;;;17.10;3.47;;;;;;;8.54;100.00;97251.59;5075803;28;20319;-79
2023/12/10 01:44:15;;;;;;;14.83;2.90;;;;;;;8.57;100.00;97261.91;5074216;28;20228;-79
2023/12/10 01:46:41;;;;;;;13.90;2.80;;;;;;;8.64;100.00;97263.13;5075698;28;20299;-79
2023/12/10 01:49:10;;;;;;;13.63;2.57;;;;;;;8.62;100.00;97254.50;5075145;28;20287;-80
2023/12/10 01:51:38;;;;;;;16.40;3.80;;;;;;;8.66;100.00;97271.72;5075442;28;20227;-79
2023/12/10 01:54:06;;;;;;;14.27;3.03;;;;;;;8.67;100.00;97278.69;5075091;28;20673;-78
2023/12/10 01:56:33;;;;;;;17.07;3.03;;;;;;;8.69;100.00;97274.16;5075011;28;20208;-78
2023/12/10 01:59:00;;;;;;;15.10;3.10;;;;;;;8.66;100.00;97277.00;5074519;28;20239;-79
2023/12/10 02:01:27;;;;;;;15.10;2.37;;;;;;;8.62;100.00;97280.84;5075274;28;20280;-78
2023/12/10 02:03:54;;;;;;;11.60;2.60;;;;;;;8.66;100.00;97279.63;5075197;28;20605;-78
2023/12/10 02:06:25;;;;;;;16.63;3.00;;;;;;;8.65;100.00;97291.13;5075379;28;20235;-79
2023/12/10 02:08:51;;;;;;;13.97;2.90;;;;;;;8.60;100.00;97282.72;5075055;28;20219;-79
2023/12/10 02:11:18;;;;;;;12.70;2.73;;;;;;;8.61;100.00;97290.53;5074793;28;20228;-78
2023/12/10 02:13:45;;;;;;;13.03;2.43;;;;;;;8.61;100.00;97281.78;5074632;28;20210;-79
2023/12/10 02:16:13;;;;;;;15.57;3.47;;;;;;;8.65;100.00;97291.13;5073415;28;20284;-79
2023/12/10 02:18:39;;;;;;;11.60;2.37;;;;;;;8.63;100.00;97300.97;5073841;28;20215;-79
2023/12/10 02:21:06;;;;;;;13.40;2.67;;;;;;;8.66;100.00;97303.34;5074505;28;20321;-79
2023/12/10 02:23:51;;;;;;;10.03;2.20;;;;;;;8.61;100.00;97308.09;5074915;28;20244;-79
2023/12/10 02:26:18;;;;;;;13.33;3.10;;;;;;;8.57;100.00;97315.41;5074083;28;20213;-79
2023/12/10 02:28:45;;;;;;;10.53;2.77;;;;;;;8.61;100.00;97321.28;5074385;28;20212;-79
2023/12/10 02:31:12;;;;;;;10.40;2.57;;;;;;;8.62;100.00;97322.97;5074089;28;20664;-79
2023/12/10 02:33:38;;;;;;;9.93;2.60;;;;;;;8.61;100.00;97326.53;5074856;28;20209;-79
2023/12/10 02:36:05;;;;;;;9.83;2.60;;;;;;;8.56;100.00;97340.06;5074108;28;20212;-79
2023/12/10 02:38:32;;;;;;;13.03;2.30;;;;;;;8.52;100.00;97337.78;5074499;28;20296;-79
2023/12/10 02:40:58;;;;;;;12.43;3.27;;;;;;;8.52;100.00;97353.56;5074531;28;20210;-79
2023/12/10 02:43:26;;;;;;;10.30;2.23;;;;;;;8.43;100.00;97355.09;5074281;28;20300;-79
2023/12/10 02:45:53;;;;;;;11.10;2.37;;;;;;;8.37;100.00;97352.91;5074103;28;20210;-79
2023/12/10 02:48:21;;;;;;;9.67;1.70;;;;;;;8.32;100.00;97355.00;5073903;28;20692;-79
2023/12/10 02:50:48;;;;;;;6.73;1.43;;;;;;;8.27;100.00;97364.22;5074204;28;20224;-79
2023/12/10 02:53:15;;;;;;;6.60;1.30;;;;;;;8.13;100.00;97403.78;5074731;28;20770;-79
2023/12/10 02:55:41;;;;;;;6.07;1.20;;;;;;;7.80;100.00;97417.53;5075120;28;20307;-79
2023/12/10 02:58:08;;;;;;;6.73;1.60;;;;;;;7.53;100.00;97408.91;5075308;28;20294;-79
2023/12/10 03:00:36;;;;;;;9.13;1.77;;;;;;;7.39;100.00;97405.53;5075463;28;20298;-79
2023/12/10 03:03:03;;;;;;;5.13;1.30;;;;;;;7.23;100.00;97404.91;5076397;28;20734;-79
2023/12/10 03:05:29;;;;;;;5.93;1.47;;;;;;;7.17;100.00;97409.72;5075646;28;20325;-79
2023/12/10 03:07:56;;;;;;;5.23;1.30;;;;;;;7.17;100.00;97386.91;5077392;28;20271;-79
2023/12/10 03:10:23;;;;;;;7.83;1.60;;;;;;;7.21;100.00;97377.84;5077795;28;20293;-79
2023/12/10 03:12:49;;;;;;;7.47;1.70;;;;;;;7.11;100.00;97376.81;5077245;28;20227;-79
2023/12/10 03:15:16;;;;;;;9.13;1.53;;;;;;;7.06;100.00;97386.78;5076594;28;20766;-79
2023/12/10 03:17:44;;;;;;;8.77;1.53;;;;;;;6.98;100.00;97399.59;5077241;28;20290;-79
2023/12/10 03:20:12;;;;;;;6.03;1.53;;;;;;;6.92;100.00;97405.25;5074399;28;20307;-77
2023/12/10 03:22:39;;;;;;;10.97;1.63;;;;;;;6.94;100.00;97403.38;5074350;28;20235;-78
2023/12/10 03:25:06;;;;;;;5.63;1.53;;;;;;;6.97;100.00;97403.16;5076874;28;20325;-78
2023/12/10 03:27:33;;;;;;;9.70;1.70;;;;;;;6.94;100.00;97416.50;5077772;28;20234;-78
2023/12/10 03:29:59;;;;;;;6.70;1.40;;;;;;;6.99;100.00;97414.41;5077364;28;20237;-78
2023/12/10 03:32:26;;;;;;;11.63;2.27;;;;;;;7.02;100.00;97414.19;5077535;28;20318;-78
2023/12/10 03:34:54;;;;;;;7.90;1.83;;;;;;;7.05;100.00;97413.16;5077094;28;20277;-78
2023/12/10 03:37:21;;;;;;;5.80;1.50;;;;;;;7.08;100.00;97415.59;5077391;28;20295;-78
2023/12/10 03:39:47;;;;;;;10.63;1.87;;;;;;;7.05;100.00;97415.78;5077032;28;20207;-78
2023/12/10 03:42:14;;;;;;;7.30;2.07;;;;;;;7.11;100.00;97426.75;5076398;28;20314;-80
2023/12/10 03:44:41;;;;;;;11.50;1.70;;;;;;;7.21;100.00;97426.97;5072247;28;20515;-78
2023/12/10 03:47:08;;;;;;;6.87;1.67;;;;;;;7.17;100.00;97431.59;5072718;28;20221;-78
2023/12/10 03:49:34;;;;;;;7.50;2.10;;;;;;;7.19;100.00;97434.94;5072866;28;20282;-79
2023/12/10 03:52:02;;;;;;;9.30;2.00;;;;;;;7.18;100.00;97444.59;5073289;28;20608;-78
2023/12/10 03:54:29;;;;;;;10.30;2.00;;;;;;;7.17;100.00;97451.75;5072610;28;20229;-78
2023/12/10 03:56:55;;;;;;;5.47;1.27;;;;;;;7.23;100.00;97445.16;5073403;28;20277;-78
2023/12/10 03:59:22;;;;;;;7.23;1.93;;;;;;;7.27;100.00;97466.81;5078083;28;20288;-80
2023/12/10 04:01:48;;;;;;;11.43;2.10;;;;;;;7.33;100.00;97458.50;5079218;28;20333;-79
2023/12/10 04:04:15;;;;;;;12.77;2.40;;;;;;;7.48;100.00;97457.50;5079014;28;20292;-79
2023/12/10 04:06:42;;;;;;;12.07;2.83;;;;;;;7.51;100.00;97478.31;5079536;28;20302;-79
2023/12/10 04:09:10;;;;;;;8.17;2.03;;;;;;;7.58;100.00;97479.56;5080280;28;20730;-79
2023/12/10 04:11:37;;;;;;;5.30;1.80;;;;;;;7.62;100.00;97483.69;5079762;28;20333;-79
2023/12/10 04:14:04;;;;;;;5.00;1.73;;;;;;;7.69;100.00;97483.19;5079446;28;20233;-79
2023/12/10 04:16:31;;;;;;;11.20;1.97;;;;;;;7.70;100.00;97494.53;5078508;28;20237;-79
2023/12/10 04:18:58;;;;;;;11.27;1.73;;;;;;;7.64;100.00;97498.44;5080087;28;20294;-79
2023/12/10 04:21:25;;;;;;;7.63;1.67;;;;;;;7.63;100.00;97503.78;5079963;28;20326;-79
2023/12/10 04:23:51;;;;;;;6.67;1.77;;;;;;;7.60;100.00;97501.38;5080437;28;20299;-79
2023/12/10 04:26:19;;;;;;;9.57;2.27;;;;;;;7.65;100.00;97501.91;5080277;28;20572;-79
2023/12/10 04:28:46;;;;;;;7.80;1.33;;;;;;;7.63;100.00;97504.63;5080893;28;20214;-79
2023/12/10 04:31:13;;;;;;;6.67;2.10;;;;;;;7.63;100.00;97512.53;5080790;28;20330;-79
2023/12/10 04:33:39;;;;;;;10.50;1.93;;;;;;;7.68;100.00;97512.19;5080600;28;20223;-79
2023/12/10 04:36:06;;;;;;;9.37;1.67;;;;;;;7.79;100.00;97509.69;5080960;28;20647;-79
2023/12/10 04:38:33;;;;;;;12.20;2.17;;;;;;;7.76;100.00;97508.13;5080371;28;20294;-79
2023/12/10 04:40:59;;;;;;;8.80;2.23;;;;;;;7.75;100.00;97502.94;5082495;28;20746;-79
2023/12/10 04:43:33;;;;;;;8.43;2.20;;;;;;;7.72;100.00;97518.94;5084866;28;20294;-79
2023/12/10 04:46:00;;;;;;;4.47;1.67;;;;;;;7.71;100.00;97526.00;5084052;28;20230;-79
2023/12/10 04:48:27;;;;;;;9.13;1.90;;;;;;;7.73;100.00;97525.91;5083667;28;20204;-79
2023/12/10 04:50:54;;;;;;;6.87;1.87;;;;;;;7.75;100.00;97531.88;5082954;28;20231;-79
2023/12/10 04:53:20;;;;;;;4.50;1.50;;;;;;;7.74;100.00;97528.44;5083858;28;20654;-78
2023/12/10 04:55:47;;;;;;;8.17;1.77;;;;;;;7.75;100.00;97524.84;5082246;28;20286;-78
2023/12/10 04:58:13;;;;;;;6.30;1.87;;;;;;;7.77;100.00;97532.66;5083651;28;20286;-79
2023/12/10 05:00:41;;;;;;;9.17;1.93;;;;;;;7.77;100.00;97548.41;5083622;28;20275;-79
2023/12/10 05:03:08;;;;;;;12.30;2.03;;;;;;;7.76;100.00;97563.34;5084025;28;20216;-79
2023/12/10 05:05:35;;;;;;;6.70;1.47;;;;;;;7.77;100.00;97558.94;5083144;28;20323;-79
2023/12/10 05:08:02;;;;;;;8.50;1.70;;;;;;;7.80;100.00;97550.84;5083678;28;20212;-79
2023/12/10 05:10:29;;;;;;;7.00;1.50;;;;;;;7.85;100.00;97551.38;5084010;28;20212;-79
2023/12/10 05:12:55;;;;;;;9.97;2.07;;;;;;;7.86;100.00;97548.66;5084074;28;20314;-79
2023/12/10 05:15:22;;;;;;;7.97;2.20;;;;;;;7.95;100.00;97541.91;5083293;28;20211;-79
2023/12/10 05:17:50;;;;;;;5.97;1.50;;;;;;;8.00;100.00;97545.91;5084244;28;20235;-79
2023/12/10 05:20:17;;;;;;;11.13;1.53;;;;;;;7.96;100.00;97548.88;5084409;28;20280;-79
2023/12/10 05:22:43;;;;;;;11.87;2.13;;;;;;;8.00;100.00;97545.06;5083889;28;20318;-79
2023/12/10 05:25:11;;;;;;;11.73;1.90;;;;;;;7.97;100.00;97563.69;5082237;28;20303;-79
2023/12/10 05:27:37;;;;;;;7.80;1.97;;;;;;;7.94;100.00;97563.88;5082793;28;20628;-79
2023/12/10 05:30:05;;;;;;;11.10;2.03;;;;;;;8.02;99.18;97540.56;5082020;28;20280;-79
2023/12/10 05:32:31;;;;;;;8.27;2.10;;;;;;;7.97;99.49;97540.03;5081369;28;20274;-79
2023/12/10 05:34:59;;;;;;;5.73;1.77;;;;;;;8.01;97.95;97552.84;5081284;28;20208;-79
2023/12/10 05:37:26;;;;;;;9.43;2.13;;;;;;;7.96;98.63;97559.38;5081181;28;20211;-79
2023/12/10 05:39:52;;;;;;;10.70;2.13;;;;;;;7.98;96.34;97552.22;5080349;28;20300;-78
2023/12/10 05:42:19;;;;;;;6.37;1.90;;;;;;;7.91;97.90;97562.31;5080764;28;20315;-79
2023/12/10 05:44:45;;;;;;;10.70;2.10;;;;;;;7.89;97.38;97564.22;5080411;28;20228;-79
2023/12/10 05:47:12;;;;;;;8.10;2.30;;;;;;;7.87;95.65;97566.09;5081604;28;20638;-79
2023/12/10 05:49:38;;;;;;;7.20;1.63;;;;;;;7.88;95.62;97567.78;5081705;28;20244;-79
2023/12/10 05:52:06;;;;;;;9.20;2.27;;;;;;;7.92;94.21;97571.06;5081350;28;20473;-79
2023/12/10 05:54:33;;;;;;;5.93;1.87;;;;;;;7.96;93.96;97580.44;5081303;28;20709;-79
2023/12/10 05:57:00;;;;;;;14.03;1.90;;;;;;;7.91;94.91;97591.25;5080919;28;20598;-79
2023/12/10 05:59:26;;;;;;;6.93;1.50;;;;;;;7.86;95.61;97587.25;5080805;28;20809;-79
2023/12/10 06:01:53;;;;;;;6.37;1.60;;;;;;;7.80;96.16;97606.06;5081538;28;20326;-78
2023/12/10 06:04:19;;;;;;;3.27;1.27;;;;;;;7.79;95.28;97601.75;5081686;28;20235;-79
2023/12/10 06:06:46;;;;;;;9.00;1.73;;;;;;;7.80;96.23;97616.59;5081993;28;20266;-79
2023/12/10 06:09:14;;;;;;;7.50;1.70;;;;;;;7.79;95.59;97614.91;5080568;28;20208;-79
2023/12/10 06:11:41;;;;;;;7.53;1.80;;;;;;;7.76;96.03;97628.25;5083071;28;20323;-79
2023/12/10 06:14:07;;;;;;;6.10;1.80;;;;;;;7.78;95.22;97645.63;5083072;28;20231;-79
2023/12/10 06:16:34;;;;;;;4.73;1.73;;;;;;;7.85;92.71;97620.59;5081346;28;20238;-79
2023/12/10 06:19:00;;;;;;;8.13;1.70;;;;;;;7.83;93.98;97629.56;5081649;28;20279;-79
2023/12/10 06:21:27;;;;;;;9.67;1.83;;;;;;;7.82;93.53;97636.59;5082025;28;20337;-79
2023/12/10 06:23:53;;;;;;;4.70;1.47;;;;;;;7.88;91.14;97640.59;5082365;28;20631;-79
2023/12/10 06:26:21;;;;;;;9.97;1.70;;;;;;;7.91;90.49;97632.53;5081389;28;20800;-79
2023/12/10 06:28:48;;;;;;;6.80;1.50;;;;;;;7.90;90.23;97636.94;5082043;28;20290;-79
2023/12/10 06:31:14;;;;;;;9.63;1.70;;;;;;;7.86;89.42;97648.63;5082412;28;20659;-78
2023/12/10 06:33:42;;;;;;;8.93;1.70;;;;;;;7.82;90.48;97651.53;5075606;28;20735;-78
2023/12/10 06:36:09;;;;;;;9.13;1.70;;;;;;;7.86;89.31;97653.03;5077622;28;20697;-80
2023/12/10 06:38:36;;;;;;;5.20;1.30;;;;;;;7.83;90.47;97661.13;5077873;28;20642;-80
2023/12/10 06:41:03;;;;;;;8.57;1.43;;;;;;;7.79;91.17;97675.41;5079046;28;20326;-80
2023/12/10 06:43:31;;;;;;;7.40;1.70;;;;;;;7.81;90.63;97668.25;5082478;28;20275;-80
2023/12/10 06:45:58;;;;;;;8.47;1.60;;;;;;;7.83;89.18;97651.44;5079106;28;20226;-80
2023/12/10 06:48:25;;;;;;;8.97;1.80;;;;;;;7.79;90.17;97667.53;5082744;28;20203;-79
2023/12/10 06:50:51;;;;;;;8.97;2.23;;;;;;;7.78;90.05;97674.56;5083097;28;20213;-79
2023/12/10 06:53:18;;;;;;;8.73;1.50;;;;;;;7.84;90.24;97683.84;5082322;28;20718;-79
2023/12/10 06:55:45;;;;;;;11.27;1.87;;;;;;;7.89;90.82;97685.22;5080527;28;20638;-78
2023/12/10 06:58:12;;;;;;;7.17;1.73;;;;;;;7.89;92.66;97692.31;5081601;28;20204;-78
2023/12/10 07:00:40;;;;;;;9.23;2.23;;;;;;;7.87;93.41;97702.06;5080775;28;20208;-78
2023/12/10 07:03:06;;;;;;;6.57;1.40;;;;;;;7.81;93.26;97697.19;5081630;28;20217;-81
2023/12/10 07:05:33;;;;;;;8.33;1.37;;;;;;;7.76;94.13;97699.28;5081820;28;20282;-81
2023/12/10 07:07:59;;;;;;;7.77;1.77;;;;;;;7.76;95.18;97694.88;5080579;28;20254;-80
2023/12/10 07:10:26;;;;;;;5.10;1.30;;;;;;;7.78;93.83;97692.97;5077450;28;20307;-80
2023/12/10 07:12:54;;;;;;;7.73;1.53;;;;;;;7.70;94.24;97699.66;5075354;28;20320;-81
2023/12/10 07:15:20;;;;;;;7.47;1.53;;;;;;;7.61;94.89;97703.75;5074892;28;20598;-80
2023/12/10 07:17:48;;;;;;;8.93;1.70;;;;;;;7.60;94.93;97703.84;5074840;28;20317;-81
2023/12/10 07:20:15;;;;;;;4.97;1.80;;;;;;;7.62;95.34;97713.34;5078452;28;20233;-81
2023/12/10 07:22:42;;;;;;;7.07;1.50;;;;;;;7.64;95.36;97718.47;5078423;28;20251;-78
2023/12/10 07:25:09;;;;;;;7.33;1.47;;;;;;;7.65;94.56;97707.03;5078807;28;20298;-79
2023/12/10 07:27:36;;;;;;;10.73;1.97;;;;;;;7.67;93.03;97710.41;5077418;28;20246;-78
2023/12/10 07:30:02;;;;;;;9.90;1.73;;;;;;;7.67;93.34;97721.78;5072684;28;20218;-77
2023/12/10 07:32:29;;;;;;;8.70;1.80;;;;;;;7.72;92.97;97724.09;5073018;28;20314;-79
2023/12/10 07:34:57;;;;;;;8.87;1.97;;;;;;;7.71;93.19;97733.78;5078609;28;20235;-79
2023/12/10 07:37:24;;;;;;;6.63;1.80;;;;;;;7.65;94.80;97734.16;5074382;28;20298;-81
2023/12/10 07:39:51;;;;;;;7.37;1.60;;;;;;;7.73;92.67;97720.53;5073825;28;20328;-80
2023/12/10 07:42:17;;;;;;;5.37;1.77;;;;;;;7.84;90.63;97718.06;5074863;28;20606;-79
2023/12/10 07:44:44;;;;;;;6.70;1.80;;;;;;;7.78;92.37;97728.97;5074774;28;20644;-79
2023/12/10 07:47:10;;;;;;;14.17;1.93;;;;;;;7.83;92.14;97732.16;5075505;28;20612;-79
2023/12/10 07:49:37;;;;;;;10.03;1.83;;;;;;;7.86;92.66;97753.00;5075971;28;20302;-79
2023/12/10 07:52:05;;;;;;;4.83;1.63;;;;;;;7.79;94.25;97746.44;5077178;28;20259;-79
2023/12/10 07:54:32;;;;;;;7.87;1.77;;;;;;;7.79;94.18;97757.78;5075788;28;20217;-79
2023/12/10 07:56:58;;;;;;;6.87;1.90;;;;;;;7.82;94.90;97767.28;5075280;28;20276;-79
2023/12/10 07:59:25;;;;;;;5.17;1.13;;;;;;;7.85;95.60;97777.63;5075177;28;20753;-80
2023/12/10 08:01:52;;;;;;;6.73;1.60;;;;;;;7.89;94.27;97769.44;5078128;28;20611;-78
2023/12/10 08:04:18;;;;;;;9.20;1.67;;;;;;;8.01;93.81;97766.00;5074203;28;20607;-79
2023/12/10 08:06:46;;;;;;;9.23;1.90;;;;;;;8.05;93.90;97779.81;5078733;28;20315;-80
2023/12/10 08:09:17;;;;;;;8.80;2.00;;;;;;;8.01;94.81;97784.44;5075070;28;20442;-81
2023/12/10 08:11:44;;;;;;;10.60;1.93;;;;;;;8.00;95.94;97798.53;5074914;28;20258;-81
2023/12/10 08:14:10;;;;;;;6.07;1.60;;;;;;;8.04;94.08;97791.28;5074028;28;20216;-78
2023/12/10 08:16:37;;;;;;;4.93;1.83;;;;;;;8.10;92.28;97773.31;5080188;28;20290;-81
2023/12/10 08:19:03;;;;;;;5.93;1.63;;;;;;;8.10;93.73;97786.47;5082982;28;20295;-80
2023/12/10 08:21:30;;;;;;;9.18;1.88;;;;;;;8.11;93.00;97789.94;5085671;28;20433;-80
2023/12/10 08:23:56;;;;;;;10.17;1.60;;;;;;;8.17;92.25;97790.41;5083751;28;20212;-81
2023/12/10 08:26:24;;;;;;;6.50;1.47;;;;;;;8.24;91.30;97788.22;5082331;28;20713;-81
2023/12/10 08:28:51;;;;;;;8.87;1.90;;;;;;;8.33;89.20;97777.09;5084152;28;20243;-80
2023/12/10 08:31:18;;;;;;;6.90;1.87;;;;;;;8.33;90.35;97783.19;5084043;28;20291;-81
2023/12/10 08:33:46;;;;;;;6.07;1.93;;;;;;;8.34;89.62;97778.78;5083261;28;20300;-81
2023/12/10 08:36:13;;;;;;;5.37;1.53;;;;;;;8.36;89.27;97784.78;5081281;28;20204;-80
2023/12/10 08:38:40;;;;;;;4.07;1.30;;;;;;;8.39;89.01;97787.22;5082076;28;20243;-80
2023/12/10 08:41:08;;;;;;;5.20;1.50;;;;;;;8.41;89.78;97780.06;5082659;28;20596;-79
2023/12/10 08:43:37;;;;;;;7.33;1.63;;;;;;;8.39;91.00;97787.22;5083288;28;20219;-81
2023/12/10 08:46:04;;;;;;;8.50;1.63;;;;;;;8.40;89.23;97783.66;5079484;28;20231;-80
2023/12/10 08:48:31;;;;;;;5.23;1.57;;;;;;;8.40;88.83;97786.28;5080371;28;20211;-81
2023/12/10 08:50:57;;;;;;;10.57;2.27;;;;;;;8.42;88.86;97789.66;5081368;28;20205;-81
2023/12/10 08:53:24;;;;;;;6.47;1.73;;;;;;;8.45;91.33;97805.28;5081315;28;20211;-81
2023/12/10 08:55:51;;;;;;;8.75;1.50;;;;;;;8.56;88.33;97790.44;5077988;28;20516;-80
2023/12/10 08:58:17;;;;;;;5.93;1.30;;;;;;;8.73;86.40;97778.75;5057274;28;20216;-81
2023/12/10 09:00:45;;;;;;;4.30;1.50;;;;;;;8.92;85.51;97780.06;5049160;28;20288;-81
2023/12/10 09:03:12;;;;;;;5.10;1.50;;;;;;;9.06;86.21;97787.03;5042976;28;20233;-81
2023/12/10 09:05:38;;;;;;;5.20;1.40;;;;;;;9.11;85.09;97787.56;5057501;28;20218;-81
2023/12/10 09:08:06;;;;;;;8.47;1.70;;;;;;;9.12;84.52;97786.59;5058535;28;20246;-81
2023/12/10 09:10:33;;;;;;;6.77;1.50;;;;;;;9.23;85.06;97789.34;5059713;28;20227;-81
2023/12/10 09:12:59;;;;;;;5.93;1.50;;;;;;;9.33;84.47;97791.25;5059944;28;20659;-81
2023/12/10 09:15:26;;;;;;;10.13;1.93;;;;;;;9.36;84.91;97800.75;5058378;28;20589;-81
2023/12/10 09:17:54;;;;;;;5.77;1.67;;;;;;;9.36;83.30;97806.00;5060347;28;20236;-79
2023/12/10 09:20:20;;;;;;;7.10;1.67;;;;;;;9.36;85.03;97800.75;5059904;28;20221;-82
2023/12/10 09:22:47;;;;;;;4.50;1.73;;;;;;;9.35;84.57;97814.84;5060212;28;20243;-82
2023/12/10 09:25:14;;;;;;;3.77;1.40;;;;;;;9.26;86.95;97833.94;5060695;28;20239;-80
2023/12/10 09:27:41;;;;;;;9.53;1.83;;;;;;;9.10;91.85;97857.03;5058877;28;20566;-80
2023/12/10 09:30:09;;;;;;;7.93;2.00;;;;;;;8.93;91.47;97855.53;5060117;28;20577;-81
2023/12/10 09:32:35;;;;;;;6.77;1.40;;;;;;;8.92;90.38;97842.44;5059441;28;20317;-81
2023/12/10 09:35:04;;;;;;;6.97;1.87;;;;;;;8.91;90.27;97861.84;5059007;28;20251;-80
2023/12/10 09:37:30;;;;;;;5.90;1.57;;;;;;;8.88;92.01;97864.72;5059139;28;20224;-81
2023/12/10 09:39:57;;;;;;;4.03;1.50;;;;;;;8.89;94.04;97883.06;5057626;28;20204;-82
2023/12/10 09:42:24;;;;;;;4.93;1.80;;;;;;;8.96;93.09;97875.56;5078812;28;20723;-81
2023/12/10 09:44:50;;;;;;;6.87;1.80;;;;;;;8.94;93.06;97874.84;5077227;28;20307;-84
2023/12/10 09:47:17;;;;;;;6.83;1.33;;;;;;;8.90;95.08;97883.88;5076726;28;20746;-84
2023/12/10 09:49:45;;;;;;;7.80;2.13;;;;;;;8.96;94.90;97875.56;5079804;28;20445;-82
2023/12/10 09:52:13;;;;;;;6.17;1.70;;;;;;;8.93;94.54;97881.06;5080775;28;20227;-82
2023/12/10 09:54:40;;;;;;;4.77;1.80;;;;;;;8.90;95.85;97886.53;5079989;28;20304;-82
2023/12/10 09:57:07;;;;;;;6.97;1.73;;;;;;;8.95;97.29;97889.69;5080720;28;20208;-82
2023/12/10 09:59:35;;;;;;;8.70;1.80;;;;;;;8.89;100.00;97901.50;5081403;28;20296;-81
2023/12/10 10:02:05;;;;;;;2.90;1.57;;;;;;;8.85;99.60;97888.59;5080137;28;20247;-82
2023/12/10 10:04:31;;;;;;;2.70;1.30;;;;;;;8.78;100.00;97897.88;5081571;28;20237;-81
2023/12/10 10:06:58;;;;;;;4.73;1.30;;;;;;;8.81;98.96;97882.69;5082791;28;20738;-81
2023/12/10 10:09:26;;;;;;;8.87;1.20;;;;;;;8.85;98.87;97888.59;5079982;28;20209;-84
2023/12/10 10:11:53;;;;;;;4.57;1.57;;;;;;;8.83;98.46;97886.09;5075440;28;20754;-82
2023/12/10 10:14:19;;;;;;;5.37;1.57;;;;;;;8.82;97.22;97883.56;5079894;28;20645;-81
2023/12/10 10:16:49;;;;;;;4.53;1.63;;;;;;;8.82;98.43;97888.81;5070948;28;20216;-81
2023/12/10 10:19:16;;;;;;;4.13;1.30;;;;;;;8.87;99.80;97892.00;5063876;28;20293;-81
2023/12/10 10:21:44;;;;;;;5.60;1.23;;;;;;;9.03;99.05;97882.97;5068888;28;20249;-81
2023/12/10 10:24:11;;;;;;;3.83;1.37;;;;;;;9.03;97.73;97884.75;5081366;28;20219;-80
2023/12/10 10:26:39;;;;;;;4.53;1.30;;;;;;;9.05;98.29;97886.34;5081194;28;20323;-80
2023/12/10 10:29:06;;;;;;;3.97;1.33;;;;;;;9.05;98.56;97886.34;5079669;28;20242;-81
2023/12/10 10:31:33;;;;;;;3.10;1.07;;;;;;;9.04;97.01;97889.06;5079607;28;20658;-81
2023/12/10 10:34:03;;;;;;;3.10;1.10;;;;;;;9.08;97.11;97890.56;5080373;28;20242;-81
2023/12/10 10:36:30;;;;;;;5.70;1.37;;;;;;;9.07;97.21;97891.53;5080690;28;20212;-81
2023/12/10 10:38:57;;;;;;;5.00;1.33;;;;;;;9.10;98.12;97888.66;5079584;28;20305;-82
2023/12/10 10:41:24;;;;;;;6.40;1.60;;;;;;;9.09;97.17;97889.63;5080379;28;20259;-81
2023/12/10 10:43:52;;;;;;;5.63;1.33;;;;;;;9.06;99.16;97893.28;5080616;28;20309;-80
2023/12/10 10:46:19;;;;;;;7.27;1.10;;;;;;;9.09;98.98;97886.97;5080183;28;20325;-81
2023/12/10 10:48:51;;;;;;;6.13;1.70;;;;;;;9.04;98.25;97884.66;5080944;28;20247;-81
2023/12/10 10:51:20;;;;;;;7.33;1.43;;;;;;;9.06;99.29;97893.28;5080811;28;20228;-81
2023/12/10 10:53:48;;;;;;;5.23;1.40;;;;;;;9.16;99.29;97882.97;5081832;28;20212;-81
2023/12/10 10:56:16;;;;;;;8.97;1.50;;;;;;;9.24;99.57;97883.31;5079775;28;20216;-80
2023/12/10 10:58:43;;;;;;;5.13;1.60;;;;;;;9.31;99.87;97871.41;5078403;28;20294;-81
2023/12/10 11:01:38;;;;;;;6.73;1.87;;;;;;;9.36;100.00;97869.31;5078185;28;20256;-81
2023/12/10 11:04:06;;;;;;;7.57;2.00;;;;;;;9.39;98.67;97869.09;5078308;28;20281;-81
2023/12/10 11:06:32;;;;;;;5.87;1.70;;;;;;;9.35;98.50;97863.19;5078672;28;20231;-80
2023/12/10 11:08:59;;;;;;;4.63;1.60;;;;;;;9.38;100.00;97875.31;5078751;28;20753;-80
2023/12/10 11:11:26;;;;;;;8.43;1.60;;;;;;;9.37;100.00;97869.19;5079061;28;20315;-81
2023/12/10 11:13:54;;;;;;;8.17;1.60;;;;;;;9.38;100.00;97862.97;5082041;28;20210;-81
2023/12/10 11:16:22;;;;;;;3.77;1.37;;;;;;;9.39;99.57;97866.44;5081604;28;20213;-79
2023/12/10 11:18:53;;;;;;;6.97;2.27;;;;;;;9.38;98.55;97862.13;5080015;28;20502;-79
2023/12/10 11:21:20;;;;;;;7.20;1.53;;;;;;;9.42;96.73;97855.69;5082646;28;20254;-79
2023/12/10 11:23:47;;;;;;;4.80;1.20;;;;;;;9.45;96.71;97861.59;5082293;28;20238;-80
2023/12/10 11:26:13;;;;;;;5.97;1.27;;;;;;;9.47;94.21;97851.78;5081410;28;20289;-81
2023/12/10 11:28:41;;;;;;;5.20;1.30;;;;;;;9.56;95.17;97856.44;5083613;28;20206;-81
2023/12/10 11:31:08;;;;;;;6.20;1.13;;;;;;;9.51;94.36;97862.97;5083903;28;20231;-81
2023/12/10 11:33:40;;;;;;;7.10;1.63;;;;;;;9.52;94.86;97869.91;5082072;28;20271;-82